createdAt,value
2019-02-11T00:00:28.428Z,6.00
2019-02-11T00:02:58.058Z,6.10
2019-02-11T00:05:25.720Z,6.20
2019-02-11T00:07:53.409Z,6.10
2019-02-11T00:10:27.571Z,6.00
2019-02-11T00:12:55.153Z,6.00
2019-02-11T00:15:22.949Z,6.00
2019-02-11T00:17:50.525Z,6.00
2019-02-11T00:20:18.319Z,6.10
2019-02-11T00:22:45.958Z,6.20
2019-02-11T00:25:13.592Z,6.30
2019-02-11T00:27:41.508Z,6.30
2019-02-11T00:30:09.086Z,6.30
2019-02-11T00:32:36.671Z,6.30
2019-02-11T00:35:04.178Z,6.40
2019-02-11T00:37:31.660Z,6.40
2019-02-11T00:39:59.248Z,6.50
2019-02-11T00:42:26.844Z,6.50
2019-02-11T00:44:54.409Z,6.50
2019-02-11T00:47:21.991Z,6.40
2019-02-11T00:49:49.456Z,6.40
2019-02-11T00:52:17.035Z,6.40
2019-02-11T00:54:44.471Z,6.50
2019-02-11T00:57:12.027Z,6.50
2019-02-11T00:59:39.587Z,6.40
2019-02-11T01:02:07.194Z,6.40
2019-02-11T01:04:34.636Z,6.40
2019-02-11T01:07:02.226Z,6.40
2019-02-11T01:09:29.833Z,6.40
2019-02-11T01:11:57.430Z,6.40
2019-02-11T01:14:26.219Z,6.50
2019-02-11T01:16:53.842Z,6.50
2019-02-11T01:19:21.334Z,6.50
2019-02-11T01:21:48.917Z,6.50
2019-02-11T01:24:16.457Z,6.50
2019-02-11T01:26:44.049Z,6.60
2019-02-11T01:29:11.653Z,6.50
2019-02-11T01:31:39.219Z,6.40
2019-02-11T01:34:06.729Z,6.40
2019-02-11T01:36:34.311Z,6.50
2019-02-11T01:39:01.921Z,6.60
2019-02-11T01:41:30.521Z,6.70
2019-02-11T01:44:11.093Z,6.70
2019-02-11T01:46:38.577Z,6.60
2019-02-11T01:49:08.269Z,6.60
2019-02-11T01:51:35.731Z,6.70
2019-02-11T01:54:03.270Z,6.70
2019-02-11T01:56:30.755Z,6.60
2019-02-11T01:58:58.222Z,6.70
2019-02-11T02:01:25.686Z,6.60
2019-02-11T02:03:53.115Z,6.50
2019-02-11T02:06:20.666Z,6.50
2019-02-11T02:08:48.218Z,6.50
2019-02-11T02:11:15.772Z,6.60
2019-02-11T02:13:44.926Z,6.70
2019-02-11T02:16:12.587Z,6.60
2019-02-11T02:18:41.284Z,6.60
2019-02-11T02:21:08.870Z,6.60
2019-02-11T02:23:36.320Z,6.60
2019-02-11T02:26:03.754Z,6.60
2019-02-11T02:28:31.106Z,6.60
2019-02-11T02:30:58.585Z,6.60
2019-02-11T02:33:26.174Z,6.60
2019-02-11T02:35:53.746Z,6.60
2019-02-11T02:38:40.756Z,6.60
2019-02-11T02:41:08.341Z,6.60
2019-02-11T02:43:35.867Z,6.50
2019-02-11T02:46:03.457Z,6.60
2019-02-11T02:48:30.998Z,6.70
2019-02-11T02:50:58.468Z,6.70
2019-02-11T02:53:25.918Z,6.80
2019-02-11T02:55:53.396Z,7.00
2019-02-11T02:58:21.265Z,7.00
2019-02-11T03:00:48.714Z,6.90
2019-02-11T03:03:17.259Z,6.80
2019-02-11T03:05:44.690Z,6.80
2019-02-11T03:08:12.200Z,6.80
2019-02-11T03:10:39.736Z,6.80
2019-02-11T03:13:07.170Z,6.80
2019-02-11T03:15:34.650Z,6.90
2019-02-11T03:18:02.084Z,6.90
2019-02-11T03:20:29.586Z,7.00
2019-02-11T03:22:57.116Z,7.00
2019-02-11T03:25:24.579Z,7.00
2019-02-11T03:27:52.120Z,7.00
2019-02-11T03:30:19.581Z,7.00
2019-02-11T03:32:47.031Z,7.00
2019-02-11T03:35:14.566Z,7.10
2019-02-11T03:37:42.037Z,7.00
2019-02-11T03:40:09.540Z,7.00
2019-02-11T03:42:36.974Z,6.90
2019-02-11T03:45:05.411Z,6.90
2019-02-11T03:47:32.993Z,6.90
2019-02-11T03:50:00.467Z,6.90
2019-02-11T03:52:28.027Z,7.00
2019-02-11T03:54:55.641Z,7.00
2019-02-11T03:57:23.187Z,7.00
2019-02-11T03:59:50.653Z,6.90
2019-02-11T04:02:18.107Z,6.80
2019-02-11T04:04:45.643Z,6.70
2019-02-11T04:07:13.203Z,6.80
2019-02-11T04:09:40.696Z,6.70
2019-02-11T04:12:08.233Z,6.70
2019-02-11T04:14:35.769Z,6.70
2019-02-11T04:17:06.382Z,6.70
2019-02-11T04:19:34.277Z,6.70
2019-02-11T04:22:06.289Z,6.70
2019-02-11T04:24:33.881Z,6.60
2019-02-11T04:27:01.405Z,6.50
2019-02-11T04:29:28.875Z,6.50
2019-02-11T04:31:56.419Z,6.50
2019-02-11T04:34:23.944Z,6.60
2019-02-11T04:36:51.440Z,6.50
2019-02-11T04:39:18.941Z,6.50
2019-02-11T04:41:46.469Z,6.40
2019-02-11T04:44:13.917Z,6.40
2019-02-11T04:46:41.430Z,6.40
2019-02-11T04:49:08.984Z,6.40
2019-02-11T04:51:36.427Z,6.40
2019-02-11T04:54:03.933Z,6.50
2019-02-11T04:56:31.469Z,6.60
2019-02-11T04:58:58.929Z,6.80
2019-02-11T05:01:26.458Z,6.90
2019-02-11T05:03:54.105Z,6.80
2019-02-11T05:06:21.695Z,6.80
2019-02-11T05:08:49.305Z,6.80
2019-02-11T05:11:16.895Z,6.80
2019-02-11T05:13:44.359Z,6.80
2019-02-11T05:16:11.931Z,6.90
2019-02-11T05:18:39.511Z,7.00
2019-02-11T05:21:08.106Z,7.10
2019-02-11T05:23:35.547Z,7.00
2019-02-11T05:26:02.974Z,7.00
2019-02-11T05:28:30.575Z,7.10
2019-02-11T05:30:58.033Z,7.10
2019-02-11T05:33:25.524Z,7.10
2019-02-11T05:35:53.014Z,7.10
2019-02-11T05:38:20.594Z,7.00
2019-02-11T05:40:48.147Z,6.90
2019-02-11T05:43:15.946Z,7.00
2019-02-11T05:45:43.501Z,6.90
2019-02-11T05:48:11.136Z,6.80
2019-02-11T05:50:38.637Z,6.90
2019-02-11T05:53:06.212Z,6.90
2019-02-11T05:55:33.771Z,6.90
2019-02-11T05:58:01.346Z,6.80
2019-02-11T06:00:34.619Z,6.90
2019-02-11T06:03:03.285Z,6.80
2019-02-11T06:05:30.868Z,6.90
2019-02-11T06:07:58.288Z,6.80
2019-02-11T06:10:25.798Z,6.70
2019-02-11T06:12:53.333Z,6.60
2019-02-11T06:15:20.794Z,6.80
2019-02-11T06:17:48.336Z,6.90
2019-02-11T06:20:15.812Z,6.90
2019-02-11T06:22:43.258Z,6.90
2019-02-11T06:25:10.731Z,6.80
2019-02-11T06:27:38.167Z,6.80
2019-02-11T06:30:07.691Z,6.80
2019-02-11T06:32:35.162Z,6.80
2019-02-11T06:35:02.766Z,6.80
2019-02-11T06:37:30.303Z,6.90
2019-02-11T06:39:57.830Z,7.00
2019-02-11T06:42:25.392Z,7.10
2019-02-11T06:44:52.938Z,7.10
2019-02-11T06:47:20.417Z,7.10
2019-02-11T06:49:48.020Z,7.00
2019-02-11T06:52:15.552Z,7.00
2019-02-11T06:54:43.137Z,7.00
2019-02-11T06:57:10.731Z,7.00
2019-02-11T06:59:38.295Z,7.00
2019-02-11T07:02:05.830Z,7.00
2019-02-11T07:04:33.420Z,6.90
2019-02-11T07:07:00.928Z,6.90
2019-02-11T07:09:28.502Z,6.70
2019-02-11T07:11:56.040Z,6.80
2019-02-11T07:14:23.445Z,6.90
2019-02-11T07:16:51.040Z,7.00
2019-02-11T07:19:18.558Z,7.10
2019-02-11T07:21:46.094Z,6.90
2019-02-11T07:24:13.639Z,6.80
2019-02-11T07:26:41.093Z,6.90
2019-02-11T07:29:08.670Z,7.10
2019-02-11T07:31:36.246Z,7.00
2019-02-11T07:34:03.720Z,7.00
2019-02-11T07:36:31.283Z,7.00
2019-02-11T07:38:58.835Z,7.10
2019-02-11T07:41:45.890Z,7.00
2019-02-11T07:44:20.292Z,7.10
2019-02-11T07:46:52.068Z,7.00
2019-02-11T07:49:19.619Z,7.00
2019-02-11T07:51:47.190Z,6.90
2019-02-11T07:54:14.741Z,6.80
2019-02-11T07:56:42.349Z,6.90
2019-02-11T07:59:09.885Z,6.90
2019-02-11T08:01:37.443Z,7.10
2019-02-11T08:04:04.914Z,7.30
2019-02-11T08:06:32.540Z,7.20
2019-02-11T08:09:00.068Z,7.20
2019-02-11T08:11:27.613Z,7.10
2019-02-11T08:13:55.078Z,7.10
2019-02-11T08:16:22.635Z,7.20
2019-02-11T08:18:50.175Z,6.90
2019-02-11T08:21:17.737Z,6.80
2019-02-11T08:23:45.261Z,6.80
2019-02-11T08:26:12.774Z,6.90
2019-02-11T08:28:40.318Z,6.80
2019-02-11T08:31:07.873Z,6.90
2019-02-11T08:33:35.458Z,6.90
2019-02-11T08:36:03.019Z,7.00
2019-02-11T08:38:30.515Z,7.00
2019-02-11T08:40:57.971Z,6.90
2019-02-11T08:43:25.535Z,6.90
2019-02-11T08:45:52.931Z,6.70
2019-02-11T08:48:20.454Z,6.70
2019-02-11T08:50:47.953Z,6.60
2019-02-11T08:53:15.557Z,6.60
2019-02-11T08:55:43.079Z,6.60
2019-02-11T08:58:10.539Z,6.50
2019-02-11T09:00:38.091Z,6.40
2019-02-11T09:03:05.627Z,6.40
2019-02-11T09:05:33.110Z,6.50
2019-02-11T09:08:00.946Z,6.50
2019-02-11T09:10:28.652Z,6.70
2019-02-11T09:12:56.107Z,6.70
2019-02-11T09:15:23.534Z,6.70
2019-02-11T09:17:51.103Z,6.70
2019-02-11T09:20:18.583Z,6.60
2019-02-11T09:22:46.180Z,6.60
2019-02-11T09:25:13.732Z,6.70
2019-02-11T09:27:41.296Z,6.80
2019-02-11T09:30:11.404Z,7.00
2019-02-11T09:32:38.957Z,7.20
2019-02-11T09:35:06.426Z,7.30
2019-02-11T09:37:33.893Z,7.30
2019-02-11T09:40:01.434Z,7.40
2019-02-11T09:42:28.966Z,7.60
2019-02-11T09:44:56.426Z,7.70
2019-02-11T09:47:24.002Z,7.80
2019-02-11T09:50:10.552Z,7.90
2019-02-11T09:52:38.084Z,8.10
2019-02-11T09:55:29.386Z,8.10
2019-02-11T09:57:56.866Z,8.00
2019-02-11T10:00:24.630Z,7.80
2019-02-11T10:02:52.164Z,7.60
2019-02-11T10:05:19.694Z,7.60
2019-02-11T10:07:47.184Z,7.70
2019-02-11T10:10:14.660Z,7.70
2019-02-11T10:12:42.221Z,7.70
2019-02-11T10:15:10.320Z,7.70
2019-02-11T10:17:37.866Z,7.70
2019-02-11T10:20:06.506Z,7.60
2019-02-11T10:22:33.976Z,7.60
2019-02-11T10:25:01.472Z,7.50
2019-02-11T10:27:28.965Z,7.50
2019-02-11T10:29:56.447Z,7.50
2019-02-11T10:32:24.043Z,7.50
2019-02-11T10:34:51.644Z,7.60
2019-02-11T10:37:19.177Z,7.70
2019-02-11T10:39:47.773Z,7.70
2019-02-11T10:42:15.266Z,7.70
2019-02-11T10:44:42.812Z,7.70
2019-02-11T10:47:10.368Z,7.70
2019-02-11T10:49:37.844Z,7.70
2019-02-11T10:52:05.331Z,7.70
2019-02-11T10:54:33.833Z,7.70
2019-02-11T10:57:01.385Z,7.60
2019-02-11T10:59:29.355Z,7.60
2019-02-11T11:01:56.888Z,7.70
2019-02-11T11:04:24.446Z,8.40
2019-02-11T11:06:53.072Z,9.00
2019-02-11T11:09:20.639Z,9.20
2019-02-11T11:11:48.247Z,9.30
2019-02-11T11:14:15.859Z,9.50
2019-02-11T11:16:43.469Z,9.40
2019-02-11T11:19:12.019Z,9.30
2019-02-11T11:21:39.595Z,9.10
2019-02-11T11:24:07.268Z,8.90
2019-02-11T11:26:34.857Z,9.20
2019-02-11T11:29:02.577Z,9.40
2019-02-11T11:31:30.071Z,9.50
2019-02-11T11:33:57.574Z,9.50
2019-02-11T11:36:25.120Z,9.40
2019-02-11T11:38:52.571Z,9.30
2019-02-11T11:41:20.135Z,9.30
2019-02-11T11:43:47.619Z,9.20
2019-02-11T11:46:15.315Z,9.10
2019-02-11T11:48:42.733Z,9.00
2019-02-11T11:51:10.219Z,8.90
2019-02-11T11:53:37.756Z,8.70
2019-02-11T11:56:05.191Z,8.60
2019-02-11T11:58:32.787Z,8.60
2019-02-11T12:01:00.590Z,8.40
2019-02-11T12:03:28.234Z,8.20
2019-02-11T12:05:55.760Z,8.10
2019-02-11T12:08:23.253Z,8.10
2019-02-11T12:10:50.759Z,8.00
2019-02-11T12:13:22.973Z,7.90
2019-02-11T12:15:47.744Z,7.90
2019-02-11T12:18:15.318Z,8.00
2019-02-11T12:20:42.876Z,8.40
2019-02-11T12:23:10.476Z,8.70
2019-02-11T12:25:38.037Z,8.90
2019-02-11T12:28:05.585Z,8.90
2019-02-11T12:30:33.130Z,8.80
2019-02-11T12:33:00.688Z,8.90
2019-02-11T12:35:28.237Z,8.90
2019-02-11T12:37:55.878Z,9.00
2019-02-11T12:40:23.501Z,9.50
2019-02-11T12:42:53.026Z,10.30
2019-02-11T12:45:21.160Z,11.10
2019-02-11T12:47:48.728Z,12.00
2019-02-11T12:50:16.582Z,12.70
2019-02-11T12:52:44.158Z,13.20
2019-02-11T12:55:12.259Z,13.40
2019-02-11T12:57:39.838Z,13.30
2019-02-11T13:00:10.321Z,13.10
2019-02-11T13:02:37.891Z,12.60
2019-02-11T13:05:05.478Z,12.00
2019-02-11T13:07:33.046Z,11.50
2019-02-11T13:10:00.621Z,11.00
2019-02-11T13:12:28.235Z,10.40
2019-02-11T13:14:56.887Z,10.10
2019-02-11T13:17:33.956Z,9.80
2019-02-11T13:20:07.636Z,9.80
2019-02-11T13:22:23.193Z,9.70
2019-02-11T13:24:50.713Z,9.70
2019-02-11T13:27:18.266Z,9.70
2019-02-11T13:29:45.866Z,9.90
2019-02-11T13:32:13.441Z,10.00
2019-02-11T13:34:40.930Z,10.20
2019-02-11T13:37:08.687Z,10.30
2019-02-11T13:39:36.310Z,10.30
2019-02-11T13:42:03.844Z,10.20
2019-02-11T13:44:31.713Z,10.20
2019-02-11T13:46:59.306Z,10.00
2019-02-11T13:49:26.855Z,10.00
2019-02-11T13:51:54.429Z,10.00
2019-02-11T13:54:21.959Z,9.90
2019-02-11T13:56:49.535Z,9.90
2019-02-11T13:59:17.119Z,9.90
2019-02-11T14:01:44.716Z,9.90
2019-02-11T14:04:12.319Z,9.90
2019-02-11T14:06:39.957Z,9.70
2019-02-11T14:09:11.693Z,9.70
2019-02-11T14:11:39.511Z,9.60
2019-02-11T14:14:07.069Z,9.50
2019-02-11T14:16:34.677Z,9.40
2019-02-11T14:19:02.273Z,9.30
2019-02-11T14:21:30.853Z,9.20
2019-02-11T14:23:58.475Z,9.20
2019-02-11T14:26:26.183Z,9.20
2019-02-11T14:28:53.775Z,9.30
2019-02-11T14:31:21.637Z,9.30
2019-02-11T14:33:49.476Z,9.30
2019-02-11T14:36:17.285Z,9.20
2019-02-11T14:38:44.982Z,9.20
2019-02-11T14:41:12.710Z,9.10
2019-02-11T14:43:40.503Z,9.10
2019-02-11T14:46:08.250Z,9.00
2019-02-11T14:48:36.000Z,8.90
2019-02-11T14:51:03.730Z,8.80
2019-02-11T14:53:31.325Z,8.80
2019-02-11T14:55:59.021Z,8.80
2019-02-11T14:58:27.609Z,8.80
2019-02-11T15:00:55.227Z,8.90
2019-02-11T15:03:22.875Z,8.90
2019-02-11T15:05:51.587Z,8.90
2019-02-11T15:08:19.138Z,9.00
2019-02-11T15:10:46.670Z,9.00
2019-02-11T15:13:14.306Z,9.00
2019-02-11T15:15:41.785Z,9.10
2019-02-11T15:18:09.246Z,9.20
2019-02-11T15:20:36.721Z,9.10
2019-02-11T15:23:04.194Z,9.00
2019-02-11T15:25:31.760Z,9.00
2019-02-11T15:27:59.331Z,9.00
2019-02-11T15:30:26.872Z,8.90
2019-02-11T15:32:54.423Z,8.90
2019-02-11T15:35:21.993Z,8.90
2019-02-11T15:37:49.458Z,9.00
2019-02-11T15:40:19.087Z,9.10
2019-02-11T15:42:46.660Z,9.20
2019-02-11T15:45:14.233Z,9.20
2019-02-11T15:47:41.794Z,9.20
2019-02-11T15:50:10.521Z,9.10
2019-02-11T15:52:37.990Z,9.00
2019-02-11T15:55:07.302Z,9.00
2019-02-11T15:57:34.860Z,9.00
2019-02-11T16:00:02.510Z,9.00
2019-02-11T16:02:30.044Z,8.90
2019-02-11T16:05:02.436Z,8.80
2019-02-11T16:07:26.981Z,8.70
2019-02-11T16:09:55.900Z,8.60
2019-02-11T16:12:23.681Z,8.70
2019-02-11T16:14:51.291Z,8.60
2019-02-11T16:17:18.824Z,8.60
2019-02-11T16:19:46.384Z,8.50
2019-02-11T16:22:13.906Z,8.50
2019-02-11T16:24:41.450Z,8.50
2019-02-11T16:27:08.936Z,8.40
2019-02-11T16:29:36.402Z,8.30
2019-02-11T16:32:03.862Z,8.30
2019-02-11T16:34:31.345Z,8.20
2019-02-11T16:36:58.941Z,8.10
2019-02-11T16:39:26.479Z,8.00
2019-02-11T16:41:54.158Z,7.90
2019-02-11T16:44:21.704Z,7.90
2019-02-11T16:46:49.279Z,7.80
2019-02-11T16:49:16.859Z,7.80
2019-02-11T16:51:44.458Z,7.70
2019-02-11T16:54:12.021Z,7.60
2019-02-11T16:56:39.595Z,7.60
2019-02-11T16:59:07.119Z,7.60
2019-02-11T17:01:34.645Z,7.50
2019-02-11T17:04:02.127Z,7.50
2019-02-11T17:06:29.650Z,7.40
2019-02-11T17:08:57.240Z,7.40
2019-02-11T17:11:25.103Z,7.30
2019-02-11T17:13:52.635Z,7.30
2019-02-11T17:16:20.268Z,7.40
2019-02-11T17:18:47.832Z,7.40
2019-02-11T17:21:16.449Z,7.40
2019-02-11T17:23:44.062Z,7.40
2019-02-11T17:26:11.656Z,7.40
2019-02-11T17:28:39.240Z,7.40
2019-02-11T17:31:07.353Z,7.40
2019-02-11T17:33:34.913Z,7.30
2019-02-11T17:36:02.651Z,7.30
2019-02-11T17:38:30.108Z,7.30
2019-02-11T17:40:57.704Z,7.30
2019-02-11T17:43:25.285Z,7.20
2019-02-11T17:45:52.914Z,7.10
2019-02-11T17:48:21.985Z,7.10
2019-02-11T17:50:49.601Z,7.00
2019-02-11T17:53:17.363Z,7.10
2019-02-11T17:55:45.973Z,7.10
2019-02-11T17:58:13.683Z,7.00
2019-02-11T18:00:47.055Z,7.10
2019-02-11T18:03:14.641Z,6.90
2019-02-11T18:05:42.196Z,7.00
2019-02-11T18:08:09.639Z,7.00
2019-02-11T18:10:37.200Z,7.00
2019-02-11T18:13:04.733Z,7.00
2019-02-11T18:15:32.328Z,7.00
2019-02-11T18:17:59.841Z,7.10
2019-02-11T18:20:27.470Z,7.10
2019-02-11T18:22:55.032Z,7.00
2019-02-11T18:25:22.618Z,7.20
2019-02-11T18:27:50.063Z,7.10
2019-02-11T18:30:17.628Z,7.20
2019-02-11T18:32:45.193Z,7.20
2019-02-11T18:35:12.833Z,7.40
2019-02-11T18:37:40.302Z,7.40
2019-02-11T18:40:09.369Z,7.20
2019-02-11T18:42:36.918Z,7.30
2019-02-11T18:45:05.741Z,7.20
2019-02-11T18:47:33.201Z,7.20
2019-02-11T18:50:01.956Z,7.30
2019-02-11T18:52:29.540Z,7.40
2019-02-11T18:54:57.006Z,7.30
2019-02-11T18:57:25.698Z,7.30
2019-02-11T18:59:53.252Z,7.30
2019-02-11T19:02:20.734Z,7.20
2019-02-11T19:04:48.327Z,7.10
2019-02-11T19:07:15.749Z,7.10
2019-02-11T19:09:44.409Z,7.10
2019-02-11T19:12:12.000Z,7.10
2019-02-11T19:14:39.490Z,7.20
2019-02-11T19:17:06.987Z,7.20
2019-02-11T19:19:42.793Z,7.20
2019-02-11T19:22:03.950Z,7.20
2019-02-11T19:24:31.478Z,7.30
2019-02-11T19:26:59.069Z,7.30
2019-02-11T19:29:26.586Z,7.20
2019-02-11T19:31:54.114Z,7.30
2019-02-11T19:34:21.636Z,7.20
2019-02-11T19:36:49.189Z,7.20
2019-02-11T19:39:16.785Z,7.20
2019-02-11T19:41:44.390Z,7.20
2019-02-11T19:44:11.854Z,7.20
2019-02-11T19:46:39.422Z,7.30
2019-02-11T19:49:07.039Z,7.30
2019-02-11T19:51:34.646Z,7.20
2019-02-11T19:54:02.227Z,7.00
2019-02-11T19:56:29.788Z,7.00
2019-02-11T19:58:57.364Z,7.00
2019-02-11T20:01:24.901Z,7.00
2019-02-11T20:03:52.524Z,7.10
2019-02-11T20:06:20.109Z,7.10
2019-02-11T20:08:47.678Z,7.10
2019-02-11T20:11:15.221Z,7.00
2019-02-11T20:13:42.786Z,7.00
2019-02-11T20:16:10.271Z,7.00
2019-02-11T20:18:37.749Z,6.90
2019-02-11T20:21:05.355Z,6.90
2019-02-11T20:23:32.893Z,6.80
2019-02-11T20:26:01.537Z,6.70
2019-02-11T20:28:29.221Z,6.70
2019-02-11T20:30:56.949Z,6.80
2019-02-11T20:33:24.674Z,6.80
2019-02-11T20:35:52.223Z,6.90
2019-02-11T20:38:19.800Z,6.90
2019-02-11T20:40:47.406Z,7.00
2019-02-11T20:43:15.080Z,7.00
2019-02-11T20:45:42.637Z,7.00
2019-02-11T20:48:10.191Z,7.10
2019-02-11T20:50:37.659Z,7.10
2019-02-11T20:53:05.150Z,7.20
2019-02-11T20:55:32.726Z,7.20
2019-02-11T20:58:00.309Z,7.20
2019-02-11T21:00:27.989Z,7.00
2019-02-11T21:02:55.588Z,7.10
2019-02-11T21:05:23.185Z,7.00
2019-02-11T21:07:50.794Z,7.10
2019-02-11T21:10:18.315Z,7.10
2019-02-11T21:12:45.794Z,7.10
2019-02-11T21:15:13.970Z,6.90
2019-02-11T21:17:41.560Z,6.80
2019-02-11T21:20:17.583Z,6.90
2019-02-11T21:22:43.580Z,6.90
2019-02-11T21:25:11.184Z,7.10
2019-02-11T21:27:38.691Z,7.10
2019-02-11T21:30:08.754Z,7.10
2019-02-11T21:32:36.334Z,7.00
2019-02-11T21:35:04.236Z,7.00
2019-02-11T21:37:31.960Z,6.80
2019-02-11T21:39:59.499Z,6.60
2019-02-11T21:42:27.090Z,6.40
2019-02-11T21:44:54.690Z,6.40
2019-02-11T21:47:25.545Z,6.30
2019-02-11T21:49:53.072Z,6.40
2019-02-11T21:52:21.730Z,6.40
2019-02-11T21:54:49.245Z,6.40
2019-02-11T21:57:16.849Z,6.50
2019-02-11T21:59:44.423Z,6.50
2019-02-11T22:02:11.978Z,6.50
2019-02-11T22:04:39.573Z,6.60
2019-02-11T22:07:06.987Z,6.50
2019-02-11T22:09:34.443Z,6.50
2019-02-11T22:12:01.911Z,6.50
2019-02-11T22:14:29.605Z,6.50
2019-02-11T22:16:57.059Z,6.30
2019-02-11T22:19:24.916Z,6.20
2019-02-11T22:21:52.470Z,6.30
2019-02-11T22:24:19.989Z,6.30
2019-02-11T22:26:47.579Z,6.40
2019-02-11T22:29:15.096Z,6.30
2019-02-11T22:31:42.685Z,6.40
2019-02-11T22:34:11.369Z,6.40
2019-02-11T22:36:39.099Z,6.50
2019-02-11T22:39:07.536Z,6.60
2019-02-11T22:41:35.138Z,6.70
2019-02-11T22:44:02.716Z,6.80
2019-02-11T22:46:30.317Z,6.80
2019-02-11T22:48:57.916Z,6.80
2019-02-11T22:51:25.477Z,6.80
2019-02-11T22:53:53.038Z,6.80
2019-02-11T22:56:20.533Z,6.60
2019-02-11T22:58:48.071Z,6.60
2019-02-11T23:01:16.014Z,6.60
2019-02-11T23:03:43.714Z,6.60
2019-02-11T23:06:11.307Z,6.60
2019-02-11T23:08:38.902Z,6.60
2019-02-11T23:11:06.399Z,6.60
2019-02-11T23:13:33.918Z,6.60
2019-02-11T23:16:01.450Z,6.50
2019-02-11T23:18:28.990Z,6.40
2019-02-11T23:20:56.558Z,6.50
2019-02-11T23:23:24.096Z,6.50
2019-02-11T23:25:51.688Z,6.50
2019-02-11T23:28:19.279Z,6.40
2019-02-11T23:30:46.782Z,6.40
2019-02-11T23:33:14.388Z,6.40
2019-02-11T23:35:41.876Z,6.50
2019-02-11T23:38:09.406Z,6.60
2019-02-11T23:40:36.798Z,6.60
2019-02-11T23:43:04.311Z,6.60
2019-02-11T23:45:32.084Z,6.60
2019-02-11T23:47:59.988Z,6.50
2019-02-11T23:50:27.454Z,6.50
2019-02-11T23:52:54.946Z,6.60
2019-02-11T23:55:22.406Z,6.50
2019-02-11T23:57:49.957Z,6.50
